Bauang Weathercam more information Bauang Weathercam


Rain radar more information rain snow radar


Visit other webcamsites:

Youtube



Nearby METAR Reports

   
RPLC - Angeles/Pampanga, Philippines
Distance from station: S 165 km
Updated: 08-12-2022 01:00
Mostly Cloudy  
Mostly Cloudy  
   Wind: West 1 m/s
Wind: West 1 m/s
Temperature: 27°C
Heat Index: 29°C
Dew Point: 22°C
Humidity: 74%
Barometer: 1010 hPa
Clouds: Mostly Cloudy
Visibility: More than 10 km
Cloud details: Partly Cloudy 609.6 m,
Mostly Cloudy 9144 m
RPLC 071700Z 28002KT 9999 SCT020 BKN300 27/22 Q1010 NOSIG RMK A2983
RPLI - Laoag Intl(Ph-Ar, Philippines
Distance from station: N 172 km
Updated: 07-12-2022 23:00
NOT Current
Light Showers, Rain, Mostly Cloudy  
Light Showers, Rain, Mostly Cloudy  
   Wind: North 8.7 m/s
Wind: North 8.7 m/s
Temperature: 26°C
Dew Point: 24°C
Humidity: 89%
Barometer: 1010 hPa
Clouds: Mostly Cloudy
Visibility: 8 km
Cloud details: Partly Cloudy 548.6 m,
Mostly Cloudy 3048 m
RPLI 071500Z 01017KT 8000 -SHRA SCT018 BKN100 26/24 Q1010 RMK A2983
RPLB - Olongapo/Subic, Philippines
Distance from station: S 203 km
Updated: 08-12-2022 01:00
Partly Cloudy  
Partly Cloudy  
   Wind: East 3.1 m/s
Wind: East 3.1 m/s
Temperature: 26°C
Dew Point: 22°C
Humidity: 79%
Barometer: 1010 hPa
Clouds: Partly Cloudy
Visibility: More than 10 km
Cloud details: Few Clouds 548.6 m,
Partly Cloudy 2438.4 m
RPLB 071700Z 08006KT 9999 FEW018 SCT080 26/22 Q1010 NOSIG RMK A2983
RPLL - Ninoy Aquino Int, Philippines
Distance from station: SSE 246 km
Updated: 08-12-2022 01:00
Few Clouds  
Few Clouds  
   Wind: ESE 2.1 m/s
Wind: ESE 2.1 m/s
Temperature: 27°C
Heat Index: 30°C
Dew Point: 24°C
Humidity: 84%
Barometer: 1009 hPa
Clouds: Few Clouds
Visibility: More than 10 km
Cloud details: Few Clouds 762 m
RPLL 071700Z 12004KT 090V150 9999 FEW025 27/24 Q1009 NOSIG RMK A2980
RPMR - Romblon/Tablas I, Philippines
Distance from station: SSE 498 km
Updated: 07-12-2022 17:00
NOT Current
Mostly Cloudy  
Mostly Cloudy  
   Wind: South 3.6 m/s
Wind: South 3.6 m/s
Temperature: 29°C
Heat Index: 33°C
Dew Point: 23°C
Humidity: 70%
Barometer: 1006 hPa
Clouds: Mostly Cloudy
Visibility: More than 10 km
Cloud details: Partly Cloudy 518.2 m,
Mostly Cloudy 2438.4 m
RPMR 070900Z 18007KT 9999 SCT017CB BKN080 29/23 Q1006 RMK A2971 CB N NW W
RPVP - Puerto Princesa, Philippines
Distance from station: SSW 778 km
Updated: 07-12-2022 23:00
NOT Current
Few Clouds  
Few Clouds  
   Wind: NNW 2.1 m/s
Wind: NNW 2.1 m/s
Clouds: Few Clouds
Visibility: More than 10 km
Cloud details: Few Clouds 579.1 m
RPVP 071500Z 33004KT 9999 FEW019 9999 FEW019 28/24 Q1009 RMK A2980
RPVM - Mactan-Cebu, Philippines
Distance from station: SSE 800 km
Updated: 08-12-2022 01:00
Mostly Cloudy  
Mostly Cloudy  
   Wind: North 3.1 m/s
Wind: North 3.1 m/s
Temperature: 27°C
Heat Index: 29°C
Dew Point: 23°C
Humidity: 79%
Barometer: 1008 hPa
Clouds: Mostly Cloudy
Visibility: More than 10 km
Cloud details: Few Clouds 609.6 m,
Mostly Cloudy 3048 m
RPVM 071700Z 01006KT 9999 FEW020 BKN100 27/23 Q1008 NOSIG RMK A2977
RPMZ - Zamboanga (civ/A, Philippines
Distance from station: S 1090 km
Updated: 08-12-2022 05:00
NOT Current
Partly Cloudy  
Partly Cloudy  
   Wind: WNW 0.5 m/s
Wind: WNW 0.5 m/s
Temperature: 26°C
Dew Point: 25°C
Humidity: 94%
Barometer: 1008 hPa
Clouds: Partly Cloudy
Visibility: More than 10 km
Cloud details: Few Clouds 518.2 m,
Partly Cloudy 9144 m
RPMZ 072100Z 30001KT 9999 FEW017 SCT300 26/25 Q1008 RMK A2977
RPMD - Davao/Francisco, Philippines
Distance from station: SSE 1198 km
Updated: 08-12-2022 01:00
Mostly Cloudy  
Mostly Cloudy  
   Wind: varies 1 m/s
Wind: varies 1 m/s
Temperature: 26°C
Dew Point: 23°C
Humidity: 84%
Barometer: 1007 hPa
Clouds: Mostly Cloudy
Visibility: More than 10 km
Cloud details: Few Clouds 487.7 m,
Mostly Cloudy 8839.2 m
RPMD 071700Z VRB02KT 9999 FEW016 BKN290 26/23 Q1007 RMK A2974

Script developed by  Saratoga-weather.org Adapted for the template by  Weerstation Leuven

You find our weather info also at:

Ambient Weather

WeatherCloud

Philippine Atmospheric, Geophysical and Astronomical Services Administration